createdAt,value
2019-04-23T00:02:44.209Z,5.17
2019-04-23T00:04:59.647Z,5.10
2019-04-23T00:10:12.385Z,5.43
2019-04-23T00:12:45.212Z,5.10
2019-04-23T00:15:21.536Z,4.80
2019-04-23T00:17:45.186Z,4.77
2019-04-23T00:20:14.727Z,5.00
2019-04-23T00:23:11.035Z,4.87
2019-04-23T00:26:17.752Z,5.40
2019-04-23T00:28:47.893Z,4.90
2019-04-23T00:31:24.524Z,4.97
2019-04-23T00:33:42.030Z,4.93
2019-04-23T00:36:22.937Z,4.97
2019-04-23T00:38:48.506Z,4.90
2019-04-23T00:41:17.851Z,4.90
2019-04-23T00:44:16.394Z,4.83
2019-04-23T00:46:22.310Z,4.80
2019-04-23T00:48:57.939Z,4.80
2019-04-23T00:51:27.454Z,5.00
2019-04-23T00:53:56.785Z,5.13
2019-04-23T00:56:40.286Z,4.83
2019-04-23T00:59:00.823Z,4.97
2019-04-23T01:04:07.176Z,5.20
2019-04-23T01:06:39.349Z,5.17
2019-04-23T01:09:08.489Z,4.90
2019-04-23T01:11:39.318Z,5.50
2019-04-23T01:14:13.657Z,4.80
2019-04-23T01:16:45.959Z,4.63
2019-04-23T01:21:43.368Z,5.17
2019-04-23T01:24:43.873Z,4.77
2019-04-23T01:27:44.613Z,5.10
2019-04-23T01:32:48.469Z,5.00
2019-04-23T01:35:24.251Z,4.80
2019-04-23T01:37:47.706Z,4.80
2019-04-23T01:40:27.220Z,5.00
2019-04-23T01:42:49.205Z,5.37
2019-04-23T01:45:24.259Z,4.80
2019-04-23T01:47:59.719Z,4.73
2019-04-23T01:50:36.508Z,4.57
2019-04-23T01:53:12.259Z,4.67
2019-04-23T01:55:45.491Z,4.17
2019-04-23T01:58:28.434Z,4.53
2019-04-23T02:00:45.126Z,4.60
2019-04-23T02:03:15.242Z,4.40
2019-04-23T02:05:50.802Z,4.43
2019-04-23T02:08:15.628Z,4.47
2019-04-23T02:13:28.579Z,4.23
2019-04-23T02:15:55.484Z,4.10
2019-04-23T02:18:43.734Z,4.20
2019-04-23T02:21:15.552Z,4.30
2019-04-23T02:23:44.367Z,4.17
2019-04-23T02:26:15.177Z,4.10
2019-04-23T02:36:22.733Z,4.17
2019-04-23T02:38:58.273Z,4.70
2019-04-23T02:41:34.733Z,4.20
2019-04-23T02:44:11.493Z,4.20
2019-04-23T02:46:31.773Z,4.40
2019-04-23T02:49:17.720Z,4.77
2019-04-23T02:59:28.578Z,4.90
2019-04-23T03:02:00.311Z,4.90
2019-04-23T03:04:26.876Z,4.77
2019-04-23T03:07:07.010Z,4.90
2019-04-23T03:09:37.034Z,4.80
2019-04-23T03:11:56.796Z,4.80
2019-04-23T03:19:38.187Z,4.50
2019-04-23T03:22:15.656Z,4.63
2019-04-23T03:25:27.863Z,4.70
2019-04-23T03:36:02.116Z,4.17
2019-04-23T03:37:55.896Z,3.93
2019-04-23T03:40:18.721Z,4.70
2019-04-23T03:43:46.411Z,4.07
2019-04-23T03:48:08.490Z,4.60
2019-04-23T03:50:35.879Z,4.53
2019-04-23T03:53:03.419Z,4.20
2019-04-23T03:55:45.369Z,4.33
2019-04-23T03:58:21.196Z,4.30
2019-04-23T04:03:42.252Z,4.30
2019-04-23T04:11:02.554Z,4.90
2019-04-23T04:13:31.074Z,3.97
2019-04-23T04:16:07.357Z,4.10
2019-04-23T04:21:08.677Z,3.93
2019-04-23T04:23:51.336Z,4.20
2019-04-23T04:26:06.987Z,3.93
2019-04-23T04:31:37.405Z,4.20
2019-04-23T04:36:26.476Z,4.20
2019-04-23T04:38:48.317Z,4.20
2019-04-23T04:41:31.227Z,4.40
2019-04-23T04:46:30.509Z,4.07
2019-04-23T04:48:58.853Z,3.80
2019-04-23T04:54:12.346Z,3.70
2019-04-23T04:56:38.402Z,3.87
2019-04-23T04:59:03.812Z,3.77
2019-04-23T05:01:28.640Z,3.93
2019-04-23T05:04:18.250Z,4.27
2019-04-23T05:06:44.406Z,3.80
2019-04-23T05:09:12.036Z,4.10
2019-04-23T05:14:12.749Z,3.97
2019-04-23T05:16:43.236Z,4.37
2019-04-23T05:19:29.782Z,4.43
2019-04-23T05:24:28.673Z,3.60
2019-04-23T05:26:48.150Z,3.77
2019-04-23T05:29:32.500Z,3.87
2019-04-23T05:31:52.940Z,3.93
2019-04-23T05:34:29.324Z,4.10
2019-04-23T05:37:00.191Z,4.27
2019-04-23T05:39:35.179Z,4.10
2019-04-23T05:42:07.127Z,3.60
2019-04-23T05:47:16.013Z,3.87
2019-04-23T05:49:45.422Z,4.10
2019-04-23T05:52:16.141Z,4.00
2019-04-23T05:54:54.780Z,6.70
2019-04-23T05:57:14.206Z,4.03
2019-04-23T05:59:51.654Z,4.10
2019-04-23T06:02:26.207Z,4.33
2019-04-23T06:04:57.289Z,4.40
2019-04-23T06:12:31.470Z,4.17
2019-04-23T06:15:07.420Z,4.30
2019-04-23T06:17:54.211Z,4.70
2019-04-23T06:20:10.176Z,4.23
2019-04-23T06:22:45.908Z,4.10
2019-04-23T06:25:21.993Z,4.10
2019-04-23T06:27:52.758Z,4.27
2019-04-23T06:30:26.651Z,4.60
2019-04-23T06:32:51.327Z,4.53
2019-04-23T06:35:23.772Z,4.37
2019-04-23T06:40:26.602Z,4.33
2019-04-23T06:43:09.791Z,4.50
2019-04-23T06:45:35.568Z,4.10
2019-04-23T06:48:09.141Z,4.70
2019-04-23T06:50:43.028Z,4.70
2019-04-23T06:53:04.254Z,4.73
2019-04-23T06:55:45.724Z,4.57
2019-04-23T06:58:18.825Z,4.90
2019-04-23T07:00:48.831Z,4.63
2019-04-23T07:03:24.160Z,4.80
2019-04-23T07:13:53.437Z,4.80
2019-04-23T07:16:14.931Z,5.00
2019-04-23T07:24:02.361Z,4.73
2019-04-23T07:26:34.847Z,4.73
2019-04-23T07:29:05.088Z,5.00
2019-04-23T07:31:37.300Z,5.50
2019-04-23T07:39:27.306Z,4.60
2019-04-23T07:42:24.742Z,4.37
2019-04-23T07:45:17.549Z,4.30
2019-04-23T07:50:49.400Z,4.77
2019-04-23T07:53:12.890Z,5.40
2019-04-23T07:58:29.128Z,6.00
2019-04-23T08:01:02.042Z,5.67
2019-04-23T08:05:44.018Z,5.57
2019-04-23T08:08:18.327Z,5.77
2019-04-23T08:16:25.844Z,5.63
2019-04-23T08:18:49.564Z,5.53
2019-04-23T08:24:01.890Z,5.30
2019-04-23T08:29:30.277Z,5.50
2019-04-23T08:39:46.901Z,5.30
2019-04-23T08:45:28.589Z,5.37
2019-04-23T08:48:17.324Z,4.63
2019-04-23T08:50:37.169Z,4.90
2019-04-23T08:53:24.747Z,4.50
2019-04-23T08:58:22.436Z,5.40
2019-04-23T09:01:12.239Z,5.30
2019-04-23T09:03:25.213Z,5.10
2019-04-23T09:06:13.770Z,5.30
2019-04-23T09:11:06.768Z,4.60
2019-04-23T09:15:59.910Z,4.80
2019-04-23T09:18:32.141Z,5.20
2019-04-23T09:21:10.533Z,4.87
2019-04-23T09:26:08.925Z,4.70
2019-04-23T09:28:53.056Z,5.10
2019-04-23T09:31:56.959Z,4.90
2019-04-23T09:36:51.676Z,4.90
2019-04-23T09:42:24.088Z,4.97
2019-04-23T09:45:14.552Z,4.83
2019-04-23T09:50:25.524Z,5.03
2019-04-23T09:53:04.938Z,5.30
2019-04-23T09:58:06.003Z,5.37
2019-04-23T10:02:59.130Z,5.67
2019-04-23T10:05:22.088Z,6.07
2019-04-23T10:07:51.783Z,6.00
2019-04-23T10:10:14.512Z,5.40
2019-04-23T10:12:46.065Z,5.33
2019-04-23T10:15:24.383Z,5.57
2019-04-23T10:17:50.049Z,5.40
2019-04-23T10:20:20.683Z,5.33
2019-04-23T10:22:52.479Z,5.57
2019-04-23T10:25:23.598Z,5.97
2019-04-23T10:28:00.617Z,5.80
2019-04-23T10:30:26.904Z,5.63
2019-04-23T10:32:57.860Z,5.50
2019-04-23T10:35:38.697Z,6.20
2019-04-23T10:38:06.348Z,6.13
2019-04-23T10:40:37.507Z,6.00
2019-04-23T10:43:05.505Z,6.23
2019-04-23T10:46:15.328Z,6.63
2019-04-23T10:49:43.986Z,6.00
2019-04-23T10:56:53.748Z,6.83
2019-04-23T11:04:54.348Z,7.20
2019-04-23T11:07:28.526Z,7.00
2019-04-23T11:10:05.765Z,7.00
2019-04-23T11:12:44.545Z,6.67
2019-04-23T11:15:36.206Z,6.90
2019-04-23T11:20:34.049Z,6.80
2019-04-23T11:23:05.019Z,6.77
2019-04-23T11:28:11.826Z,6.83
2019-04-23T11:33:25.131Z,6.53
2019-04-23T11:36:01.378Z,5.77
2019-04-23T11:38:47.450Z,6.87
2019-04-23T11:40:44.824Z,6.53
2019-04-23T11:43:29.262Z,6.93
2019-04-23T11:45:56.335Z,6.33
2019-04-23T11:51:30.277Z,6.20
2019-04-23T11:53:34.166Z,6.57
2019-04-23T11:56:02.607Z,6.53
2019-04-23T11:58:37.662Z,6.80
2019-04-23T12:01:42.274Z,6.60
2019-04-23T12:07:10.984Z,6.10
2019-04-23T12:09:48.783Z,7.37
2019-04-23T12:12:17.174Z,7.07
2019-04-23T12:14:51.113Z,7.00
2019-04-23T12:17:47.084Z,7.60
2019-04-23T12:22:41.914Z,7.23
2019-04-23T12:25:21.678Z,7.33
2019-04-23T12:27:33.234Z,7.30
2019-04-23T12:30:17.388Z,8.03
2019-04-23T12:33:04.181Z,7.77
2019-04-23T12:35:19.606Z,8.13
2019-04-23T12:38:09.814Z,8.80
2019-04-23T12:40:38.156Z,8.10
2019-04-23T12:55:57.844Z,9.50
2019-04-23T12:58:24.836Z,9.30
2019-04-23T13:01:05.251Z,9.30
2019-04-23T13:06:03.573Z,9.77
2019-04-23T13:08:38.164Z,9.00
2019-04-23T13:11:09.291Z,10.20
2019-04-23T13:13:48.488Z,9.97
2019-04-23T13:16:17.419Z,10.03
2019-04-23T13:18:46.964Z,9.70
2019-04-23T13:21:38.445Z,9.40
2019-04-23T13:23:55.564Z,10.90
2019-04-23T13:26:27.900Z,9.60
2019-04-23T13:29:01.442Z,10.33
2019-04-23T13:31:30.076Z,10.60
2019-04-23T13:34:08.870Z,10.43
2019-04-23T13:36:45.051Z,10.77
2019-04-23T13:39:24.707Z,10.13
2019-04-23T13:41:38.858Z,9.90
2019-04-23T13:44:22.834Z,9.87
2019-04-23T13:46:50.965Z,10.40
2019-04-23T13:49:18.478Z,9.90
2019-04-23T13:51:57.267Z,9.83
2019-04-23T13:59:44.350Z,10.70
2019-04-23T14:02:04.104Z,11.20
2019-04-23T14:04:48.358Z,10.80
2019-04-23T14:07:21.306Z,11.27
2019-04-23T14:10:04.464Z,11.20
2019-04-23T14:12:17.858Z,10.70
2019-04-23T14:14:55.939Z,10.50
2019-04-23T14:20:04.517Z,10.30
2019-04-23T14:22:51.314Z,10.20
2019-04-23T14:30:13.176Z,11.17
2019-04-23T14:32:38.009Z,10.50
2019-04-23T14:35:25.477Z,10.67
2019-04-23T14:37:58.105Z,10.83
2019-04-23T14:40:22.216Z,11.07
2019-04-23T14:43:09.150Z,10.97
2019-04-23T14:48:05.772Z,10.20
2019-04-23T14:53:13.132Z,10.10
2019-04-23T14:58:23.867Z,10.70
2019-04-23T15:00:52.988Z,10.40
2019-04-23T15:06:04.923Z,10.73
2019-04-23T15:08:28.563Z,9.97
2019-04-23T15:11:06.131Z,9.90
2019-04-23T15:28:37.467Z,9.50
2019-04-23T15:31:34.331Z,9.00
2019-04-23T15:34:10.714Z,8.97
2019-04-23T15:39:11.562Z,9.30
2019-04-23T15:41:43.960Z,10.10
2019-04-23T15:44:08.692Z,10.30
2019-04-23T15:46:39.070Z,10.57
2019-04-23T15:49:18.222Z,10.30
2019-04-23T15:54:30.224Z,9.43
2019-04-23T15:56:52.290Z,10.00
2019-04-23T15:59:27.512Z,9.03
2019-04-23T16:01:42.992Z,9.40
2019-04-23T16:03:57.575Z,9.33
2019-04-23T16:06:30.897Z,10.70
2019-04-23T16:09:17.897Z,10.07
2019-04-23T16:11:51.770Z,9.57
2019-04-23T16:14:34.999Z,10.73
2019-04-23T16:17:06.674Z,10.20
2019-04-23T16:19:53.509Z,9.37
2019-04-23T16:22:32.072Z,9.53
2019-04-23T16:24:55.294Z,9.20
2019-04-23T16:27:44.519Z,8.70
2019-04-23T16:30:06.260Z,9.63
2019-04-23T16:32:52.420Z,9.43
2019-04-23T16:35:28.393Z,9.17
2019-04-23T16:38:01.627Z,9.23
2019-04-23T16:40:28.929Z,9.50
2019-04-23T16:42:59.714Z,8.27
2019-04-23T16:48:09.664Z,9.03
2019-04-23T16:50:41.749Z,9.50
2019-04-23T16:53:13.508Z,8.23
2019-04-23T16:55:37.915Z,8.50
2019-04-23T16:58:11.842Z,7.57
2019-04-23T17:00:51.261Z,8.13
2019-04-23T17:03:19.648Z,7.43
2019-04-23T17:05:59.420Z,7.50
2019-04-23T17:11:00.067Z,7.60
2019-04-23T17:13:24.065Z,8.00
2019-04-23T17:15:58.065Z,8.70
2019-04-23T17:20:56.623Z,8.53
2019-04-23T17:23:40.183Z,8.10
2019-04-23T17:26:13.657Z,7.30
2019-04-23T17:28:52.801Z,6.93
2019-04-23T17:31:26.367Z,6.77
2019-04-23T17:33:43.475Z,7.40
2019-04-23T17:36:51.441Z,6.40
2019-04-23T17:39:35.537Z,6.40
2019-04-23T17:42:27.408Z,5.80
2019-04-23T17:45:17.952Z,5.70
2019-04-23T17:47:37.498Z,6.23
2019-04-23T17:50:13.481Z,6.07
2019-04-23T17:52:51.183Z,5.80
2019-04-23T17:57:43.665Z,7.83
2019-04-23T18:05:37.140Z,4.93
2019-04-23T18:08:05.289Z,5.63
2019-04-23T18:10:34.032Z,4.53
2019-04-23T18:15:17.482Z,5.10
2019-04-23T18:20:36.915Z,5.10
2019-04-23T18:23:24.196Z,5.00
2019-04-23T18:28:17.225Z,5.40
2019-04-23T18:34:08.668Z,5.47
2019-04-23T18:36:31.773Z,5.53
2019-04-23T18:39:06.394Z,5.40
2019-04-23T18:41:42.707Z,4.90
2019-04-23T18:44:17.252Z,5.67
2019-04-23T18:46:43.584Z,6.20
2019-04-23T18:49:13.129Z,5.30
2019-04-23T18:51:58.066Z,5.57
2019-04-23T18:54:15.351Z,5.93
2019-04-23T18:57:06.561Z,5.50
2019-04-23T18:59:28.734Z,6.00
2019-04-23T19:02:11.156Z,5.63
2019-04-23T19:04:54.328Z,5.90
2019-04-23T19:07:32.238Z,6.37
2019-04-23T19:10:27.586Z,6.87
2019-04-23T19:13:12.587Z,7.00
2019-04-23T19:18:19.153Z,7.13
2019-04-23T19:23:25.933Z,6.00
2019-04-23T19:25:51.454Z,6.40
2019-04-23T19:31:07.475Z,7.13
2019-04-23T19:33:49.228Z,6.33
2019-04-23T19:38:44.133Z,6.60
2019-04-23T19:41:08.905Z,6.43
2019-04-23T19:43:49.472Z,6.53
2019-04-23T19:48:57.920Z,6.73
2019-04-23T19:51:30.155Z,6.43
2019-04-23T19:54:17.153Z,6.30
2019-04-23T19:58:56.929Z,6.17
2019-04-23T20:01:33.829Z,6.03
2019-04-23T20:03:55.991Z,6.83
2019-04-23T20:06:58.850Z,6.67
2019-04-23T20:09:30.340Z,7.07
2019-04-23T20:11:50.591Z,7.40
2019-04-23T20:14:11.296Z,6.80
2019-04-23T20:17:04.078Z,6.83
2019-04-23T20:19:18.488Z,7.27
2019-04-23T20:21:57.352Z,8.23
2019-04-23T20:24:28.266Z,7.70
2019-04-23T20:26:59.363Z,8.17
2019-04-23T20:30:05.366Z,8.53
2019-04-23T20:35:00.343Z,7.50
2019-04-23T20:37:42.739Z,8.50
2019-04-23T20:39:59.923Z,8.13
2019-04-23T20:45:07.842Z,7.77
2019-04-23T20:51:14.311Z,9.10
2019-04-23T20:53:56.767Z,9.90
2019-04-23T20:56:30.214Z,9.47
2019-04-23T21:01:37.235Z,8.80
2019-04-23T21:04:01.692Z,7.97
2019-04-23T21:06:44.176Z,8.40
2019-04-23T21:11:48.214Z,8.67
2019-04-23T21:14:31.807Z,9.10
2019-04-23T21:19:26.207Z,9.70
2019-04-23T21:22:14.129Z,9.30
2019-04-23T21:24:42.956Z,9.73
2019-04-23T21:27:38.565Z,9.57
2019-04-23T21:30:03.052Z,8.37
2019-04-23T21:32:42.269Z,9.40
2019-04-23T21:38:00.370Z,8.50
2019-04-23T21:41:01.781Z,10.97
2019-04-23T21:43:47.538Z,10.73
2019-04-23T21:46:15.353Z,9.90
2019-04-23T21:51:26.209Z,9.00
2019-04-23T21:53:46.077Z,9.30
2019-04-23T21:56:15.310Z,9.17
2019-04-23T21:59:05.953Z,8.67
2019-04-23T22:01:32.951Z,9.40
2019-04-23T22:04:08.874Z,8.73
2019-04-23T22:09:04.370Z,9.27
2019-04-23T22:16:55.753Z,9.40
2019-04-23T22:21:50.203Z,9.20
2019-04-23T22:29:18.756Z,9.93
2019-04-23T22:34:22.086Z,9.90
2019-04-23T22:39:21.927Z,11.10
2019-04-23T22:42:08.866Z,10.33
2019-04-23T22:44:30.892Z,10.50
2019-04-23T22:47:03.991Z,9.73
2019-04-23T22:49:45.155Z,10.00
2019-04-23T22:52:11.335Z,9.87
2019-04-23T22:54:51.672Z,10.30
2019-04-23T22:57:04.754Z,9.30
2019-04-23T22:59:56.444Z,10.37
2019-04-23T23:02:40.762Z,11.30
2019-04-23T23:05:20.200Z,9.60
2019-04-23T23:07:47.729Z,9.70
2019-04-23T23:10:14.086Z,9.20
2019-04-23T23:17:56.309Z,12.30
2019-04-23T23:22:59.081Z,12.03
2019-04-23T23:25:24.769Z,11.37
2019-04-23T23:27:58.950Z,11.40
2019-04-23T23:30:28.295Z,11.60
2019-04-23T23:33:00.636Z,10.63
2019-04-23T23:35:27.709Z,11.00
2019-04-23T23:38:03.859Z,10.57
2019-04-23T23:40:44.072Z,12.37
2019-04-23T23:43:15.801Z,12.23
2019-04-23T23:48:06.678Z,12.17
2019-04-23T23:50:46.039Z,13.40
2019-04-23T23:55:52.349Z,13.47
2019-04-23T23:58:23.512Z,12.87
